createdAt,value
2022-10-14T00:00:06.214Z,99966.22
2022-10-14T00:02:39.058Z,99968.13
2022-10-14T00:05:07.829Z,99974.31
2022-10-14T00:07:36.637Z,99976.22
2022-10-14T00:10:05.133Z,99971.56
2022-10-14T00:12:33.078Z,99969.56
2022-10-14T00:15:00.647Z,99962.75
2022-10-14T00:17:28.077Z,99965.06
2022-10-14T00:19:55.468Z,99960.09
2022-10-14T00:22:22.879Z,99961.38
2022-10-14T00:24:51.611Z,99969.56
2022-10-14T00:27:19.315Z,99967.50
2022-10-14T00:29:47.199Z,99965.53
2022-10-14T00:32:14.672Z,99961.56
2022-10-14T00:34:42.255Z,99966.50
2022-10-14T00:37:09.817Z,99959.94
2022-10-14T00:39:37.221Z,99956.97
2022-10-14T00:42:06.118Z,99963.00
2022-10-14T00:45:01.691Z,99963.06
2022-10-14T00:47:29.555Z,99963.25
2022-10-14T00:49:57.929Z,99957.38
2022-10-14T00:52:25.410Z,99957.22
2022-10-14T00:54:56.117Z,99960.97
2022-10-14T00:57:26.131Z,99966.06
2022-10-14T00:59:55.776Z,99957.22
2022-10-14T01:02:23.323Z,99957.31
2022-10-14T01:04:51.037Z,99958.09
2022-10-14T01:07:24.461Z,99953.53
2022-10-14T01:09:58.166Z,99956.78
2022-10-14T01:12:34.307Z,99951.31
2022-10-14T01:15:08.000Z,99954.16
2022-10-14T01:17:42.007Z,99948.84
2022-10-14T01:20:32.010Z,99947.25
2022-10-14T01:23:09.057Z,99947.53
2022-10-14T01:25:45.994Z,99947.34
2022-10-14T01:28:24.428Z,99945.44
2022-10-14T01:30:56.471Z,99937.97
2022-10-14T01:33:26.377Z,99941.84
2022-10-14T01:36:02.319Z,99941.47
2022-10-14T01:38:32.752Z,99947.06
2022-10-14T01:41:06.941Z,99940.28
2022-10-14T01:43:36.019Z,99942.56
2022-10-14T01:46:07.306Z,99939.09
2022-10-14T01:48:37.189Z,99941.25
2022-10-14T01:51:07.192Z,99944.00
2022-10-14T01:53:38.038Z,99937.88
2022-10-14T01:56:07.196Z,99939.06
2022-10-14T01:58:35.389Z,99935.75
2022-10-14T02:01:05.071Z,99940.91
2022-10-14T02:03:40.446Z,99928.00
2022-10-14T02:06:10.596Z,99914.50
2022-10-14T02:08:49.326Z,99914.78
2022-10-14T02:11:18.910Z,99920.78
2022-10-14T02:14:05.001Z,99924.94
2022-10-14T02:16:38.993Z,99918.63
2022-10-14T02:19:14.340Z,99909.91
2022-10-14T02:21:45.003Z,99914.75
2022-10-14T02:24:15.865Z,99915.63
2022-10-14T02:26:43.941Z,99911.53
2022-10-14T02:29:12.381Z,99912.41
2022-10-14T02:31:42.843Z,99913.47
2022-10-14T02:34:13.922Z,99909.69
2022-10-14T02:36:42.632Z,99913.91
2022-10-14T02:39:13.073Z,99903.72
2022-10-14T02:41:40.613Z,99904.91
2022-10-14T02:44:08.866Z,99908.69
2022-10-14T02:46:36.369Z,99906.81
2022-10-14T02:49:05.117Z,99900.84
2022-10-14T02:51:32.545Z,99902.97
2022-10-14T02:54:01.718Z,99902.63
2022-10-14T02:56:29.634Z,99912.91
2022-10-14T02:59:00.612Z,99902.50
2022-10-14T03:01:28.344Z,99902.41
2022-10-14T03:03:55.916Z,99892.31
2022-10-14T03:06:26.272Z,99896.63
2022-10-14T03:08:53.693Z,99889.06
2022-10-14T03:11:22.541Z,99890.28
2022-10-14T03:13:51.739Z,99887.53
2022-10-14T03:16:21.123Z,99890.66
2022-10-14T03:18:49.089Z,99884.75
2022-10-14T03:21:29.771Z,99886.28
2022-10-14T03:23:57.137Z,99893.34
2022-10-14T03:26:32.473Z,99887.78
2022-10-14T03:28:59.895Z,99886.22
2022-10-14T03:31:40.407Z,99889.13
2022-10-14T03:34:26.405Z,99887.53
2022-10-14T03:37:05.365Z,99886.84
2022-10-14T03:39:36.276Z,99880.06
2022-10-14T03:42:05.982Z,99880.72
2022-10-14T03:44:41.299Z,99878.53
2022-10-14T03:47:16.417Z,99883.28
2022-10-14T03:49:45.271Z,99879.47
2022-10-14T03:52:21.719Z,99873.50
2022-10-14T03:55:00.158Z,99881.75
2022-10-14T03:57:28.334Z,99867.56
2022-10-14T03:59:57.934Z,99877.88
2022-10-14T04:02:41.828Z,99871.75
2022-10-14T04:05:33.971Z,99878.50
2022-10-14T04:08:07.618Z,99875.44
2022-10-14T04:10:36.037Z,99869.47
2022-10-14T04:13:03.754Z,99871.81
2022-10-14T04:15:36.421Z,99873.88
2022-10-14T04:18:15.521Z,99863.78
2022-10-14T04:20:44.335Z,99872.63
2022-10-14T04:23:13.677Z,99869.25
2022-10-14T04:25:42.849Z,99864.53
2022-10-14T04:28:12.717Z,99869.47
2022-10-14T04:30:47.309Z,99873.09
2022-10-14T04:33:20.917Z,99867.13
2022-10-14T04:35:49.841Z,99863.94
2022-10-14T04:38:26.089Z,99859.16
2022-10-14T04:40:58.893Z,99859.34
2022-10-14T04:43:27.777Z,99861.22
2022-10-14T04:45:58.306Z,99856.84
2022-10-14T04:48:27.451Z,99854.84
2022-10-14T04:50:55.992Z,99857.34
2022-10-14T04:53:35.142Z,99856.06
2022-10-14T04:56:20.424Z,99863.13
2022-10-14T04:58:58.810Z,99852.72
2022-10-14T05:01:41.840Z,99861.47
2022-10-14T05:04:09.249Z,99854.16
2022-10-14T05:06:40.544Z,99862.00
2022-10-14T05:09:11.681Z,99850.78
2022-10-14T05:11:39.429Z,99848.66
2022-10-14T05:14:06.850Z,99842.53
2022-10-14T05:16:36.445Z,99844.50
2022-10-14T05:19:04.339Z,99841.66
2022-10-14T05:21:33.715Z,99840.81
2022-10-14T05:24:07.678Z,99842.56
2022-10-14T05:26:39.022Z,99846.66
2022-10-14T05:29:11.348Z,99841.41
2022-10-14T05:31:39.988Z,99840.91
2022-10-14T05:34:20.719Z,99843.28
2022-10-14T05:36:48.233Z,99832.94
2022-10-14T05:39:16.049Z,99836.44
2022-10-14T05:41:45.225Z,99839.97
2022-10-14T05:44:14.650Z,99846.88
2022-10-14T05:46:43.059Z,99842.75
2022-10-14T05:49:11.268Z,99851.22
2022-10-14T05:51:39.257Z,99858.91
2022-10-14T05:54:14.868Z,99857.34
2022-10-14T05:56:45.187Z,99847.47
2022-10-14T05:59:12.808Z,99847.44
2022-10-14T06:01:40.637Z,99848.88
2022-10-14T06:04:08.098Z,99847.69
2022-10-14T06:06:35.464Z,99839.44
2022-10-14T06:09:05.484Z,99848.91
2022-10-14T06:11:35.022Z,99847.28
2022-10-14T06:14:03.705Z,99841.94
2022-10-14T06:16:31.245Z,99846.78
2022-10-14T06:18:58.820Z,99841.13
2022-10-14T06:21:27.397Z,99830.84
2022-10-14T06:23:54.869Z,99839.69
2022-10-14T06:26:22.183Z,99840.53
2022-10-14T06:28:49.554Z,99844.22
2022-10-14T06:31:18.292Z,99834.75
2022-10-14T06:33:45.806Z,99833.53
2022-10-14T06:36:13.148Z,99830.63
2022-10-14T06:38:41.047Z,99827.56
2022-10-14T06:41:08.488Z,99828.00
2022-10-14T06:43:37.790Z,99823.09
2022-10-14T06:46:05.512Z,99823.28
2022-10-14T06:48:34.197Z,99818.31
2022-10-14T06:51:01.801Z,99814.03
2022-10-14T06:53:29.363Z,99816.56
2022-10-14T06:56:01.314Z,99807.75
2022-10-14T06:58:28.747Z,99816.97
2022-10-14T07:03:28.965Z,99812.88
2022-10-14T07:05:57.829Z,99815.97
2022-10-14T07:08:25.148Z,99805.47
2022-10-14T07:10:52.516Z,99813.91
2022-10-14T07:13:20.305Z,99810.41
2022-10-14T07:15:48.661Z,99805.47
2022-10-14T07:18:16.159Z,99802.72
2022-10-14T07:20:43.761Z,99808.47
2022-10-14T07:23:12.549Z,99810.56
2022-10-14T07:25:39.967Z,99816.72
2022-10-14T07:28:07.616Z,99814.94
2022-10-14T07:30:35.142Z,99815.34
2022-10-14T07:33:02.730Z,99818.81
2022-10-14T07:35:32.774Z,99812.38
2022-10-14T07:38:00.448Z,99826.88
2022-10-14T07:40:29.181Z,99815.97
2022-10-14T07:42:57.242Z,99818.22
2022-10-14T07:45:24.676Z,99820.06
2022-10-14T07:47:52.284Z,99810.63
2022-10-14T07:50:20.604Z,99810.41
2022-10-14T07:52:47.972Z,99815.78
2022-10-14T07:55:15.381Z,99818.25
2022-10-14T07:57:44.038Z,99811.44
2022-10-14T08:00:12.333Z,99806.91
2022-10-14T08:02:39.762Z,99810.19
2022-10-14T08:05:32.823Z,99797.22
2022-10-14T08:07:54.858Z,99793.09
2022-10-14T08:10:22.303Z,99799.91
2022-10-14T08:12:51.810Z,99797.19
2022-10-14T08:15:19.180Z,99792.84
2022-10-14T08:17:46.558Z,99783.84
2022-10-14T08:20:13.949Z,99786.72
2022-10-14T08:22:41.386Z,99790.22
2022-10-14T08:25:09.227Z,99788.78
2022-10-14T08:27:36.581Z,99791.47
2022-10-14T08:30:10.223Z,99784.81
2022-10-14T08:32:38.577Z,99787.09
2022-10-14T08:35:06.951Z,99788.09
2022-10-14T08:37:34.409Z,99784.06
2022-10-14T08:40:01.753Z,99780.16
2022-10-14T08:42:36.086Z,99784.06
2022-10-14T08:52:55.717Z,99779.81
2022-10-14T08:55:28.115Z,99772.81
2022-10-14T08:57:58.899Z,99775.28
2022-10-14T09:00:28.528Z,99772.44
2022-10-14T09:02:56.151Z,99766.31
2022-10-14T09:05:24.986Z,99768.19
2022-10-14T09:07:55.617Z,99778.03
2022-10-14T09:10:29.597Z,99773.66
2022-10-14T09:12:59.976Z,99773.22
2022-10-14T09:15:33.966Z,99767.00
2022-10-14T09:18:05.833Z,99771.53
2022-10-14T09:20:33.568Z,99769.66
2022-10-14T09:23:11.265Z,99762.13
2022-10-14T09:25:40.168Z,99754.69
2022-10-14T09:28:07.513Z,99752.28
2022-10-14T09:30:37.935Z,99748.81
2022-10-14T09:33:06.331Z,99746.94
2022-10-14T09:35:36.012Z,99744.81
2022-10-14T09:38:03.391Z,99738.50
2022-10-14T09:40:32.313Z,99747.16
2022-10-14T09:43:02.930Z,99744.00
2022-10-14T09:45:31.160Z,99737.97
2022-10-14T09:48:03.938Z,99729.34
2022-10-14T09:50:34.279Z,99736.47
2022-10-14T09:53:03.448Z,99732.56
2022-10-14T09:55:31.328Z,99736.13
2022-10-14T09:58:04.325Z,99720.66
2022-10-14T10:00:33.433Z,99717.69
2022-10-14T10:03:02.189Z,99709.13
2022-10-14T10:05:31.358Z,99704.09
2022-10-14T10:08:05.658Z,99709.25
2022-10-14T10:10:35.058Z,99702.53
2022-10-14T10:13:03.595Z,99697.16
2022-10-14T10:15:31.072Z,99699.78
2022-10-14T10:17:58.438Z,99690.25
2022-10-14T10:20:33.141Z,99683.19
2022-10-14T10:23:25.115Z,99696.66
2022-10-14T10:25:52.732Z,99700.97
2022-10-14T10:28:31.572Z,99696.03
2022-10-14T10:31:06.086Z,99693.78
2022-10-14T10:33:38.876Z,99684.84
2022-10-14T10:38:59.710Z,99676.59
2022-10-14T10:41:37.842Z,99666.91
2022-10-14T10:44:20.117Z,99665.63
2022-10-14T10:47:03.983Z,99654.34
2022-10-14T10:49:43.774Z,99650.56
2022-10-14T10:52:21.305Z,99650.22
2022-10-14T10:54:54.422Z,99640.53
2022-10-14T10:57:32.927Z,99644.16
2022-10-14T11:00:02.680Z,99636.59
2022-10-14T11:02:55.909Z,99644.91
2022-10-14T11:05:30.778Z,99633.84
2022-10-14T11:08:28.586Z,99642.53
2022-10-14T11:11:30.389Z,99643.63
2022-10-14T11:14:04.884Z,99637.91
2022-10-14T11:16:36.717Z,99628.88
2022-10-14T11:19:11.021Z,99629.13
2022-10-14T11:21:45.826Z,99624.75
2022-10-14T11:24:24.325Z,99622.53
2022-10-14T11:27:00.794Z,99611.84
2022-10-14T11:29:42.869Z,99615.06
2022-10-14T11:32:15.351Z,99618.16
2022-10-14T11:34:44.436Z,99608.59
2022-10-14T11:37:21.142Z,99609.66
2022-10-14T11:39:51.312Z,99611.84
2022-10-14T11:42:27.788Z,99603.59
2022-10-14T11:45:07.708Z,99592.91
2022-10-14T11:47:40.413Z,99585.94
2022-10-14T11:50:16.251Z,99590.50
2022-10-14T11:52:46.356Z,99582.88
2022-10-14T11:55:17.541Z,99592.63
2022-10-14T11:57:46.388Z,99588.31
2022-10-14T12:00:33.466Z,99585.16
2022-10-14T12:03:04.222Z,99582.94
2022-10-14T12:05:37.900Z,99577.34
2022-10-14T12:08:17.043Z,99575.78
2022-10-14T12:10:48.731Z,99574.72
2022-10-14T12:13:18.773Z,99573.75
2022-10-14T12:15:50.369Z,99571.53
2022-10-14T12:36:47.025Z,99541.00
2022-10-14T12:39:31.552Z,99532.09
2022-10-14T12:42:00.757Z,99534.34
2022-10-14T12:44:34.842Z,99538.53
2022-10-14T12:47:03.735Z,99521.78
2022-10-14T12:49:32.854Z,99521.59
2022-10-14T12:52:03.088Z,99514.69
2022-10-14T12:54:31.145Z,99520.72
2022-10-14T12:57:00.820Z,99523.97
2022-10-14T12:59:30.500Z,99508.59
2022-10-14T13:01:59.425Z,99505.56
2022-10-14T13:04:27.603Z,99511.25
2022-10-14T13:07:46.647Z,99506.19
2022-10-14T13:10:32.703Z,99494.56
2022-10-14T15:01:20.714Z,99379.16
2022-10-14T15:04:12.980Z,99373.34
2022-10-14T15:06:50.979Z,99363.66
2022-10-14T15:09:23.104Z,99377.78
2022-10-14T15:11:52.022Z,99383.06
2022-10-14T15:14:30.623Z,99372.66
2022-10-14T15:17:00.762Z,99384.34
2022-10-14T15:19:35.510Z,99383.41
2022-10-14T15:22:36.203Z,99381.88
2022-10-14T15:25:08.718Z,99374.97
2022-10-14T15:27:45.760Z,99383.50
2022-10-14T15:30:36.065Z,99387.84
2022-10-14T15:33:14.540Z,99391.63
2022-10-14T15:35:42.553Z,99387.19
2022-10-14T15:38:16.136Z,99388.75
2022-10-14T15:40:44.760Z,99387.06
2022-10-14T15:43:17.398Z,99388.53
2022-10-14T15:46:08.634Z,99381.38
2022-10-14T15:48:37.643Z,99369.47
2022-10-14T15:51:05.352Z,99379.44
2022-10-14T15:53:32.793Z,99370.00
2022-10-14T15:56:01.060Z,99370.72
2022-10-14T15:58:28.405Z,99367.22
2022-10-14T16:00:55.929Z,99366.44
2022-10-14T16:03:23.282Z,99363.06
2022-10-14T16:05:52.169Z,99359.66
2022-10-14T16:08:19.633Z,99354.00
2022-10-14T16:10:48.407Z,99354.88
2022-10-14T16:13:16.315Z,99356.78
2022-10-14T16:15:47.225Z,99352.66
2022-10-14T16:18:15.948Z,99348.47
2022-10-14T16:20:43.337Z,99348.47
2022-10-14T16:23:15.628Z,99351.38
2022-10-14T16:25:45.247Z,99345.28
2022-10-14T16:28:14.597Z,99341.38
2022-10-14T16:30:49.436Z,99348.19
2022-10-14T16:33:17.518Z,99344.09
2022-10-14T16:35:46.486Z,99334.16
2022-10-14T16:38:15.266Z,99330.84
2022-10-14T16:40:45.746Z,99324.47
2022-10-14T16:43:13.681Z,99320.94
2022-10-14T16:45:41.254Z,99327.06
2022-10-14T16:48:09.324Z,99328.53
2022-10-14T16:50:36.664Z,99326.91
2022-10-14T16:53:21.501Z,99321.91
2022-10-14T16:55:51.837Z,99321.81
2022-10-14T16:58:19.186Z,99321.50
2022-10-14T17:00:46.517Z,99317.94
2022-10-14T17:03:15.501Z,99314.22
2022-10-14T17:05:44.762Z,99321.50
2022-10-14T17:08:14.559Z,99309.91
2022-10-14T17:10:42.789Z,99307.81
2022-10-14T17:13:11.524Z,99301.59
2022-10-14T17:15:38.883Z,99300.38
2022-10-14T17:18:08.881Z,99295.53
2022-10-14T17:20:38.301Z,99301.72
2022-10-14T17:23:09.470Z,99306.44
2022-10-14T17:25:40.804Z,99304.13
2022-10-14T17:28:08.346Z,99305.81
2022-10-14T17:30:40.007Z,99312.16
2022-10-14T17:33:07.545Z,99302.06
2022-10-14T17:35:37.237Z,99297.13
2022-10-14T17:38:04.560Z,99291.81
2022-10-14T17:40:33.664Z,99307.56
2022-10-14T17:43:01.182Z,99304.66
2022-10-14T17:45:30.432Z,99301.00
2022-10-14T17:47:59.081Z,99297.22
2022-10-14T17:50:27.885Z,99295.38
2022-10-14T17:52:58.656Z,99293.91
2022-10-14T17:55:26.122Z,99290.28
2022-10-14T17:57:53.570Z,99298.72
2022-10-14T18:00:21.227Z,99296.03
2022-10-14T18:02:48.580Z,99310.44
2022-10-14T18:05:17.673Z,99295.31
2022-10-14T18:07:44.989Z,99292.19
2022-10-14T18:10:14.235Z,99292.25
2022-10-14T18:12:41.785Z,99292.09
2022-10-14T18:15:10.009Z,99291.22
2022-10-14T18:17:37.406Z,99296.88
2022-10-14T18:20:06.391Z,99289.78
2022-10-14T18:22:35.156Z,99288.44
2022-10-14T18:25:03.122Z,99270.28
2022-10-14T18:27:31.273Z,99288.00
2022-10-14T18:29:58.669Z,99281.38
2022-10-14T18:32:26.351Z,99282.31
2022-10-14T18:34:53.828Z,99270.03
2022-10-14T18:37:21.194Z,99261.88
2022-10-14T18:39:49.860Z,99271.03
2022-10-14T18:42:20.091Z,99270.03
2022-10-14T18:44:48.434Z,99274.94
2022-10-14T18:47:15.838Z,99272.13
2022-10-14T18:49:43.219Z,99262.84
2022-10-14T18:52:10.605Z,99266.78
2022-10-14T18:54:38.041Z,99271.53
2022-10-14T18:57:06.829Z,99269.06
2022-10-14T18:59:35.632Z,99270.22
2022-10-14T19:02:09.056Z,99271.53
2022-10-14T19:04:36.454Z,99264.16
2022-10-14T19:07:04.139Z,99268.03
2022-10-14T19:09:33.006Z,99262.09
2022-10-14T19:12:00.400Z,99258.66
2022-10-14T19:14:31.652Z,99255.09
2022-10-14T19:16:59.088Z,99253.34
2022-10-14T19:19:26.433Z,99258.47
2022-10-14T19:21:56.145Z,99254.50
2022-10-14T19:24:23.497Z,99261.00
2022-10-14T19:26:51.457Z,99258.88
2022-10-14T19:29:18.869Z,99253.81
2022-10-14T19:31:47.670Z,99250.81
2022-10-14T19:34:16.272Z,99267.41
2022-10-14T19:36:44.405Z,99252.06
2022-10-14T19:39:13.241Z,99243.13
2022-10-14T19:41:43.144Z,99245.88
2022-10-14T19:44:11.813Z,99240.13
2022-10-14T19:46:40.084Z,99245.28
2022-10-14T19:49:13.558Z,99232.22
2022-10-14T19:51:41.245Z,99233.03
2022-10-14T19:54:09.129Z,99226.13
2022-10-14T19:56:36.731Z,99217.97
2022-10-14T19:59:04.226Z,99226.41
2022-10-14T20:01:32.266Z,99227.06
2022-10-14T20:04:01.250Z,99227.19
2022-10-14T20:06:31.586Z,99234.25
2022-10-14T20:08:59.198Z,99228.91
2022-10-14T20:11:26.730Z,99234.06
2022-10-14T20:13:57.115Z,99236.84
2022-10-14T20:16:24.944Z,99237.56
2022-10-14T20:18:52.402Z,99224.13
2022-10-14T20:21:19.841Z,99222.28
2022-10-14T20:23:48.604Z,99210.81
2022-10-14T20:26:17.767Z,99217.03
2022-10-14T20:28:45.238Z,99212.91
2022-10-14T20:31:16.415Z,99219.81
2022-10-14T20:33:44.233Z,99211.19
2022-10-14T20:36:14.270Z,99217.13
2022-10-14T20:38:42.276Z,99213.81
2022-10-14T20:41:14.205Z,99213.97
2022-10-14T20:43:42.477Z,99214.50
2022-10-14T20:46:10.723Z,99215.81
2022-10-14T20:48:38.317Z,99226.03
2022-10-14T20:51:06.613Z,99222.63
2022-10-14T20:53:36.079Z,99227.94
2022-10-14T20:56:04.044Z,99216.75
2022-10-14T20:58:32.837Z,99209.53
2022-10-14T21:01:08.531Z,99212.59
2022-10-14T21:03:36.094Z,99213.38
2022-10-14T21:06:04.876Z,99215.47
2022-10-14T21:08:32.688Z,99202.47
2022-10-14T21:11:00.539Z,99211.72
2022-10-14T21:13:28.345Z,99221.16
2022-10-14T21:15:57.510Z,99230.97
2022-10-14T21:18:25.405Z,99231.56
2022-10-14T21:23:20.812Z,99230.44
2022-10-14T21:25:55.349Z,99217.06
2022-10-14T21:28:22.750Z,99211.13
2022-10-14T21:30:50.984Z,99213.72
2022-10-14T21:33:19.885Z,99212.69
2022-10-14T21:35:47.441Z,99210.47
2022-10-14T21:38:14.834Z,99210.09
2022-10-14T21:40:42.393Z,99211.31
2022-10-14T21:43:09.876Z,99210.88
2022-10-14T21:45:37.371Z,99218.84
2022-10-14T21:48:06.651Z,99216.41
2022-10-14T21:50:35.460Z,99203.78
2022-10-14T21:53:02.945Z,99194.69
2022-10-14T21:55:30.377Z,99193.00
2022-10-14T21:57:58.105Z,99201.53
2022-10-14T22:00:25.559Z,99200.84
2022-10-14T22:02:54.114Z,99194.69
2022-10-14T22:05:22.379Z,99195.66
2022-10-14T22:07:51.272Z,99207.00
2022-10-14T22:10:38.814Z,99201.44
2022-10-14T22:13:06.283Z,99214.88
2022-10-14T22:15:33.835Z,99211.72
2022-10-14T22:18:01.335Z,99215.22
2022-10-14T22:20:29.030Z,99214.53
2022-10-14T22:22:59.181Z,99213.59
2022-10-14T22:25:26.541Z,99214.94
2022-10-14T22:27:55.309Z,99215.84
2022-10-14T22:30:22.644Z,99216.28
2022-10-14T22:32:49.961Z,99218.22
2022-10-14T22:35:17.348Z,99223.41
2022-10-14T22:37:44.729Z,99221.59
2022-10-14T22:40:13.709Z,99225.41
2022-10-14T22:42:42.331Z,99216.44
2022-10-14T22:45:11.269Z,99214.59
2022-10-14T22:47:38.661Z,99206.63
2022-10-14T22:50:06.738Z,99209.69
2022-10-14T22:52:34.081Z,99203.09
2022-10-14T22:55:01.465Z,99214.56
2022-10-14T22:57:30.081Z,99221.66
2022-10-14T22:59:57.532Z,99216.06
2022-10-14T23:02:25.454Z,99209.56
2022-10-14T23:04:53.085Z,99214.00
2022-10-14T23:07:20.642Z,99212.34
2022-10-14T23:09:48.463Z,99208.09
2022-10-14T23:12:15.780Z,99201.16
2022-10-14T23:14:44.729Z,99193.88
2022-10-14T23:17:12.097Z,99194.78
2022-10-14T23:19:39.466Z,99196.94
2022-10-14T23:22:06.834Z,99190.22
2022-10-14T23:24:34.189Z,99194.59
2022-10-14T23:27:01.549Z,99186.66
2022-10-14T23:29:28.872Z,99190.72
2022-10-14T23:31:58.029Z,99196.84
2022-10-14T23:34:25.349Z,99202.84
2022-10-14T23:39:24.948Z,99188.59
2022-10-14T23:41:55.258Z,99193.31
2022-10-14T23:44:22.597Z,99188.84
2022-10-14T23:46:50.770Z,99194.13
2022-10-14T23:49:26.030Z,99185.31
2022-10-14T23:51:54.252Z,99185.19
2022-10-14T23:54:21.597Z,99189.19
2022-10-14T23:56:48.945Z,99189.00
2022-10-14T23:59:16.306Z,99187.94
